createdAt,value
2019-04-01T00:02:37.472Z,102344.17
2019-04-01T00:07:41.530Z,102344.17
2019-04-01T00:12:45.565Z,102345.88
2019-04-01T00:17:49.895Z,102357.70
2019-04-01T00:22:54.266Z,102360.17
2019-04-01T00:27:58.412Z,102363.70
2019-04-01T00:33:02.487Z,102369.58
2019-04-01T00:38:06.532Z,102369.97
2019-04-01T00:43:11.076Z,102375.39
2019-04-01T00:48:15.106Z,102372.16
2019-04-01T00:53:19.431Z,102371.74
2019-04-01T00:58:23.743Z,102369.27
2019-04-01T01:03:27.792Z,102371.84
2019-04-01T01:08:31.922Z,102367.57
2019-04-01T01:13:36.846Z,102376.06
2019-04-01T01:18:40.853Z,102372.16
2019-04-01T01:23:44.900Z,102373.05
2019-04-01T01:28:48.934Z,102370.59
2019-04-01T01:33:53.026Z,102366.52
2019-04-01T01:38:57.055Z,102365.06
2019-04-01T01:44:01.225Z,102371.32
2019-04-01T01:49:05.259Z,102377.55
2019-04-01T01:54:09.612Z,102380.36
2019-04-01T01:59:13.868Z,102385.66
2019-04-01T02:04:17.910Z,102383.83
2019-04-01T02:09:21.976Z,102387.11
2019-04-01T02:14:26.052Z,102384.31
2019-04-01T02:19:30.054Z,102386.58
2019-04-01T02:24:34.134Z,102391.02
2019-04-01T02:29:38.186Z,102389.05
2019-04-01T02:34:42.236Z,102392.22
2019-04-01T02:39:46.271Z,102395.91
2019-04-01T02:44:50.353Z,102389.55
2019-04-01T02:49:54.334Z,102396.14
2019-04-01T02:54:58.352Z,102388.95
2019-04-01T03:00:02.441Z,102387.87
2019-04-01T03:05:06.479Z,102391.09
2019-04-01T03:10:11.249Z,102390.77
2019-04-01T03:15:15.245Z,102396.92
2019-04-01T03:20:19.289Z,102400.30
2019-04-01T03:25:23.666Z,102397.58
2019-04-01T03:30:27.726Z,102396.13
2019-04-01T03:35:31.708Z,102398.09
2019-04-01T03:40:35.784Z,102391.78
2019-04-01T03:45:39.809Z,102404.51
2019-04-01T03:50:43.857Z,102396.92
2019-04-01T03:55:47.952Z,102399.62
2019-04-01T04:00:51.980Z,102400.09
2019-04-01T04:05:56.019Z,102402.44
2019-04-01T04:11:00.175Z,102401.58
2019-04-01T04:16:04.267Z,102399.85
2019-04-01T04:21:08.329Z,102397.81
2019-04-01T04:26:12.384Z,102407.16
2019-04-01T04:31:16.398Z,102397.10
2019-04-01T04:36:20.517Z,102400.08
2019-04-01T04:41:24.796Z,102407.02
2019-04-01T04:46:28.807Z,102406.13
2019-04-01T04:51:32.993Z,102395.35
2019-04-01T04:56:37.048Z,102406.33
2019-04-01T05:01:41.187Z,102408.34
2019-04-01T05:06:45.584Z,102413.11
2019-04-01T05:11:49.717Z,102417.41
2019-04-01T05:16:53.660Z,102415.42
2019-04-01T05:21:58.604Z,102427.52
2019-04-01T05:27:04.024Z,102433.02
2019-04-01T05:32:09.633Z,102441.84
2019-04-01T05:37:13.679Z,102438.62
2019-04-01T05:42:17.799Z,102449.52
2019-04-01T05:47:21.952Z,102436.13
2019-04-01T05:52:25.946Z,102436.45
2019-04-01T05:57:29.930Z,102448.69
2019-04-01T06:02:34.748Z,102445.84
2019-04-01T06:07:40.321Z,102447.38
2019-04-01T06:12:45.227Z,102446.45
2019-04-01T06:17:49.463Z,102463.97
2019-04-01T06:22:53.508Z,102459.30
2019-04-01T06:27:57.656Z,102456.24
2019-04-01T06:33:01.902Z,102468.95
2019-04-01T06:38:06.391Z,102472.01
2019-04-01T06:43:10.564Z,102471.48
2019-04-01T06:48:16.092Z,102476.91
2019-04-01T06:53:20.330Z,102473.03
2019-04-01T06:58:26.371Z,102481.74
2019-04-01T07:03:30.649Z,102488.02
2019-04-01T07:08:34.962Z,102484.94
2019-04-01T07:13:40.195Z,102479.48
2019-04-01T07:18:44.841Z,102484.23
2019-04-01T07:23:48.983Z,102480.91
2019-04-01T07:28:53.081Z,102478.47
2019-04-01T07:33:57.516Z,102473.91
2019-04-01T07:39:01.569Z,102477.20
2019-04-01T07:44:05.549Z,102473.27
2019-04-01T07:49:09.769Z,102469.41
2019-04-01T07:54:14.060Z,102477.48
2019-04-01T07:59:18.015Z,102484.16
2019-04-01T08:04:22.184Z,102484.08
2019-04-01T08:09:26.364Z,102492.44
2019-04-01T08:14:30.404Z,102491.93
2019-04-01T08:19:34.435Z,102485.58
2019-04-01T08:24:38.524Z,102483.87
2019-04-01T08:29:42.609Z,102480.12
2019-04-01T08:34:46.830Z,102476.56
2019-04-01T08:39:50.822Z,102477.11
2019-04-01T08:44:54.868Z,102470.27
2019-04-01T08:49:58.951Z,102469.52
2019-04-01T08:55:03.311Z,102471.93
2019-04-01T09:00:08.404Z,102464.16
2019-04-01T09:05:12.659Z,102464.92
2019-04-01T09:10:16.827Z,102461.69
2019-04-01T09:15:21.232Z,102459.95
2019-04-01T09:20:25.326Z,102462.52
2019-04-01T09:25:29.387Z,102456.14
2019-04-01T09:30:33.793Z,102452.91
2019-04-01T09:35:40.888Z,102442.25
2019-04-01T09:40:43.852Z,102431.78
2019-04-01T09:45:47.943Z,102423.91
2019-04-01T09:50:51.971Z,102424.00
2019-04-01T09:55:56.086Z,102423.56
2019-04-01T10:01:00.415Z,102416.93
2019-04-01T10:06:04.748Z,102407.31
2019-04-01T10:11:12.350Z,102401.52
2019-04-01T10:16:14.645Z,102399.02
2019-04-01T10:21:18.681Z,102397.63
2019-04-01T10:26:22.800Z,102388.78
2019-04-01T10:31:26.801Z,102383.08
2019-04-01T10:36:30.952Z,102377.13
2019-04-01T10:41:35.422Z,102369.27
2019-04-01T10:46:40.871Z,102372.78
2019-04-01T10:51:45.060Z,102352.47
2019-04-01T10:56:49.130Z,102359.36
2019-04-01T11:01:53.215Z,102355.63
2019-04-01T11:06:57.532Z,102342.78
2019-04-01T11:12:01.612Z,102339.45
2019-04-01T11:17:05.663Z,102336.38
2019-04-01T11:22:09.736Z,102334.63
2019-04-01T11:27:13.806Z,102322.22
2019-04-01T11:32:17.823Z,102312.29
2019-04-01T11:37:21.867Z,102306.23
2019-04-01T11:42:25.957Z,102296.55
2019-04-01T11:47:29.978Z,102292.48
2019-04-01T11:52:34.130Z,102285.16
2019-04-01T11:57:38.187Z,102275.23
2019-04-01T12:02:42.279Z,102267.63
2019-04-01T12:07:46.340Z,102262.04
2019-04-01T12:12:50.439Z,102250.31
2019-04-01T12:17:54.568Z,102245.94
2019-04-01T12:22:58.590Z,102244.15
2019-04-01T12:28:02.631Z,102232.06
2019-04-01T12:33:06.721Z,102226.08
2019-04-01T12:38:10.807Z,102221.26
2019-04-01T12:43:15.362Z,102202.52
2019-04-01T12:48:20.266Z,102212.25
2019-04-01T12:53:24.333Z,102202.11
2019-04-01T12:58:28.456Z,102190.12
2019-04-01T13:03:32.536Z,102182.28
2019-04-01T13:08:36.649Z,102177.07
2019-04-01T13:13:41.055Z,102164.30
2019-04-01T13:18:45.093Z,102159.66
2019-04-01T13:23:49.185Z,102152.09
2019-04-01T13:28:54.957Z,102144.68
2019-04-01T13:33:59.073Z,102138.58
2019-04-01T13:39:04.271Z,102126.97
2019-04-01T13:44:09.019Z,102109.42
2019-04-01T13:49:13.218Z,102103.90
2019-04-01T13:54:17.275Z,102092.40
2019-04-01T13:59:21.383Z,102094.77
2019-04-01T14:04:25.453Z,102091.91
2019-04-01T14:09:30.997Z,102077.62
2019-04-01T14:14:35.010Z,102070.90
2019-04-01T14:19:39.238Z,102063.56
2019-04-01T14:24:45.244Z,102049.27
2019-04-01T14:29:49.304Z,102042.97
2019-04-01T14:34:53.444Z,102038.70
2019-04-01T14:39:57.513Z,102034.82
2019-04-01T14:45:02.066Z,102027.60
2019-04-01T14:50:07.857Z,102013.89
2019-04-01T14:55:12.521Z,102006.51
2019-04-01T15:00:17.953Z,102014.70
2019-04-01T15:05:22.237Z,101990.86
2019-04-01T15:10:26.335Z,101988.12
2019-04-01T15:15:30.422Z,101982.48
2019-04-01T15:20:34.440Z,101970.34
2019-04-01T15:25:38.455Z,101961.97
2019-04-01T15:30:42.518Z,101958.66
2019-04-01T15:35:46.634Z,101950.48
2019-04-01T15:40:51.312Z,101945.42
2019-04-01T15:45:55.408Z,101938.30
2019-04-01T15:50:59.517Z,101935.22
2019-04-01T15:56:03.646Z,101922.81
2019-04-01T16:01:07.838Z,101926.66
2019-04-01T16:06:11.875Z,101925.56
2019-04-01T16:11:16.091Z,101912.80
2019-04-01T16:16:20.080Z,101908.73
2019-04-01T16:21:24.484Z,101904.24
2019-04-01T16:26:28.624Z,101909.63
2019-04-01T16:31:32.620Z,101896.86
2019-04-01T16:36:36.896Z,101888.34
2019-04-01T16:41:40.970Z,101885.12
2019-04-01T16:46:45.058Z,101894.14
2019-04-01T16:51:49.395Z,101878.02
2019-04-01T16:56:53.416Z,101887.09
2019-04-01T17:01:57.918Z,101883.66
2019-04-01T17:07:02.088Z,101881.56
2019-04-01T17:12:06.441Z,101888.56
2019-04-01T17:17:10.547Z,101883.21
2019-04-01T17:22:14.657Z,101882.97
2019-04-01T17:27:18.693Z,101882.34
2019-04-01T17:32:23.360Z,101880.28
2019-04-01T17:37:27.868Z,101878.89
2019-04-01T17:42:31.962Z,101883.52
2019-04-01T17:47:36.126Z,101883.56
2019-04-01T17:52:40.152Z,101867.30
2019-04-01T17:57:44.265Z,101872.03
2019-04-01T18:02:48.535Z,101872.03
2019-04-01T18:07:52.653Z,101882.02
2019-04-01T18:12:57.405Z,101888.59
2019-04-01T18:18:02.490Z,101885.58
2019-04-01T18:23:06.609Z,101894.31
2019-04-01T18:28:12.957Z,101890.05
2019-04-01T18:33:19.827Z,101889.45
2019-04-01T18:38:23.274Z,101897.92
2019-04-01T18:43:28.236Z,101899.52
2019-04-01T18:48:33.101Z,101899.25
2019-04-01T18:53:37.181Z,101907.20
2019-04-01T18:58:42.459Z,101907.20
2019-04-01T19:03:46.941Z,101908.77
2019-04-01T19:08:52.553Z,101908.95
2019-04-01T19:13:56.787Z,101905.94
2019-04-01T19:19:04.741Z,101910.23
2019-04-01T19:24:10.414Z,101901.75
2019-04-01T19:29:16.040Z,101905.66
2019-04-01T19:34:21.985Z,101902.60
2019-04-01T19:39:30.536Z,101898.76
2019-04-01T19:44:35.726Z,101899.41
2019-04-01T19:49:41.603Z,101906.21
2019-04-01T19:54:45.749Z,101904.16
2019-04-01T19:59:49.989Z,101897.91
2019-04-01T20:04:54.097Z,101896.89
2019-04-01T20:09:58.907Z,101897.17
2019-04-01T20:15:04.104Z,101890.16
2019-04-01T20:20:09.878Z,101883.28
2019-04-01T20:25:14.197Z,101887.78
2019-04-01T20:30:18.597Z,101879.33
2019-04-01T20:35:24.001Z,101875.91
2019-04-01T20:40:28.479Z,101867.22
2019-04-01T20:45:34.468Z,101873.22
2019-04-01T20:50:41.727Z,101866.16
2019-04-01T20:55:50.896Z,101855.95
2019-04-01T21:00:58.654Z,101858.58
2019-04-01T21:06:04.697Z,101859.52
2019-04-01T21:11:12.105Z,101847.96
2019-04-01T21:16:19.080Z,101846.30
2019-04-01T21:21:27.869Z,101846.05
2019-04-01T21:26:35.341Z,101839.80
2019-04-01T21:31:44.203Z,101836.31
2019-04-01T21:36:49.038Z,101831.02
2019-04-01T21:41:54.052Z,101827.19
2019-04-01T21:46:58.359Z,101816.64
2019-04-01T21:52:03.470Z,101815.12
2019-04-01T21:57:08.084Z,101811.21
2019-04-01T22:02:12.130Z,101803.03
2019-04-01T22:07:16.195Z,101794.75
2019-04-01T22:12:20.247Z,101788.86
2019-04-01T22:17:24.272Z,101787.06
2019-04-01T22:22:28.320Z,101789.13
2019-04-01T22:27:32.350Z,101789.28
2019-04-01T22:32:36.415Z,101782.55
2019-04-01T22:37:41.090Z,101780.37
2019-04-01T22:42:45.249Z,101771.34
2019-04-01T22:47:49.354Z,101766.80
2019-04-01T22:52:53.914Z,101771.16
2019-04-01T22:57:57.944Z,101762.97
2019-04-01T23:03:02.217Z,101751.47
2019-04-01T23:08:06.258Z,101745.02
2019-04-01T23:13:10.267Z,101747.52
2019-04-01T23:18:14.304Z,101744.64
2019-04-01T23:23:18.351Z,101734.56
2019-04-01T23:28:23.250Z,101726.83
2019-04-01T23:33:28.173Z,101729.36
2019-04-01T23:38:32.529Z,101722.83
2019-04-01T23:43:37.576Z,101712.66
2019-04-01T23:48:42.271Z,101705.98
2019-04-01T23:53:46.803Z,101706.14
2019-04-01T23:58:51.199Z,101693.25
